Wind From: 11-12-2017 06:00 Until: 12-12-2017 06:00 warning for: Wind Level: Orange info button

Power and phone distribution networks may be disrupted for relatively long periods., Roofs and chimneys can be damaged. , Tree branches may break. , Vehicles can be deported. , Traffic may be disrupted, particularly on secondary roads in forest areas. Limit your trips. , Limit your speed in highway driving, especially if you drive a vehicle or hitch sensitive to wind. , Do not go for walks in forests or along the coast., In town, be vigilant against possible falling objects., Do not work on roofs and do not touch any electrical line fallen on the ground., Store or secure sensitive objects to wind or likely to be damaged., Always install power generators outside buildings. 


Meteo18 Weather Cam more information Meteo18 Weather Cam


Thunder radar more information blitzortung!


Rain radar more information rain snow radar


Visit our other weather sites:

Template documentation
and downloads

And another site



Weather Underground History page Text

Daily Summary for November 13, 2017 Units:  Both    English   Metric
« Previous Day
Next Day »
Daily Weekly Monthly Yearly Custom
  High: Low: Average:
Temperature: 46 °F /  7.8 °C 39.6 °F /  4.2 °C 42.1 °F /  5.6 °C
Dew Point: 39.7 °F /  4.3 °C 35.8 °F /  2.1 °C 37.8 °F /  3.2 °C
Humidity: 91 % 78 % 85 %
Wind Speed: 19 mph /  30.6 km/h - 7.3 mph /  11.8 km/h
Wind Gust: 24 mph /  38.6 km/h - -
Wind:- - West
Pressure: 30.3 in /  1025.6 hPa 30 in /  1016.5 hPa -
Precipitation: 0 in /  0.0 mm    
Historical Graphs
 
 
Tabular Data for November 13, 2017
Time Temperature Dew Point Pressure Wind Wind Speed Wind Gust Humidity Rainfall Rate (Hourly)
00:02 40.8 °F /  4.9 °C 36.1 °F /  2.3 °C 30 in /  1016.5 hPa WNW 12 mph /  19.3 km/h 16 mph /  25.7 km/h 83 % 0 in /  0.0 mm
00:07 40.8 °F /  4.9 °C 36.1 °F /  2.3 °C 30 in /  1016.5 hPa NW 9 mph /  14.5 km/h 17 mph /  27.4 km/h 83 % 0 in /  0.0 mm
00:12 40.8 °F /  4.9 °C 36.1 °F /  2.3 °C 30 in /  1016.5 hPa NNE 5 mph /  8.0 km/h 17 mph /  27.4 km/h 83 % 0 in /  0.0 mm
00:17 40.8 °F /  4.9 °C 36.1 °F /  2.3 °C 30 in /  1016.5 hPa NNW 5 mph /  8.0 km/h 17 mph /  27.4 km/h 83 % 0 in /  0.0 mm
00:22 40.8 °F /  4.9 °C 36.1 °F /  2.3 °C 30 in /  1016.5 hPa WNW 8 mph /  12.9 km/h 17 mph /  27.4 km/h 83 % 0 in /  0.0 mm
00:32 40.6 °F /  4.8 °C 36 °F /  2.2 °C 30 in /  1016.8 hPa NW 5 mph /  8.0 km/h 18 mph /  29.0 km/h 83 % 0 in /  0.0 mm
00:42 40.6 °F /  4.8 °C 36 °F /  2.2 °C 30 in /  1016.8 hPa NW 4 mph /  6.4 km/h 16 mph /  25.7 km/h 83 % 0 in /  0.0 mm
00:47 40.5 °F /  4.7 °C 35.8 °F /  2.1 °C 30 in /  1016.8 hPa West 8 mph /  12.9 km/h 16 mph /  25.7 km/h 83 % 0 in /  0.0 mm
00:52 40.5 °F /  4.7 °C 36 °F /  2.2 °C 30 in /  1016.8 hPa NNW 8 mph /  12.9 km/h 16 mph /  25.7 km/h 84 % 0 in /  0.0 mm
00:57 40.5 °F /  4.7 °C 35.8 °F /  2.1 °C 30 in /  1016.8 hPa NW 7 mph /  11.3 km/h 17 mph /  27.4 km/h 83 % 0 in /  0.0 mm
01:02 40.5 °F /  4.7 °C 35.8 °F /  2.1 °C 30 in /  1016.8 hPa NW 8 mph /  12.9 km/h 17 mph /  27.4 km/h 83 % 0 in /  0.0 mm
01:07 40.6 °F /  4.8 °C 36 °F /  2.2 °C 30 in /  1016.8 hPa WNW 6 mph /  9.7 km/h 18 mph /  29.0 km/h 83 % 0 in /  0.0 mm
01:12 40.5 °F /  4.7 °C 35.8 °F /  2.1 °C 30 in /  1017.2 hPa NNE 9 mph /  14.5 km/h 18 mph /  29.0 km/h 83 % 0 in /  0.0 mm
01:17 40.5 °F /  4.7 °C 35.8 °F /  2.1 °C 30 in /  1017.2 hPa NW 8 mph /  12.9 km/h 18 mph /  29.0 km/h 83 % 0 in /  0.0 mm
01:22 40.5 °F /  4.7 °C 35.8 °F /  2.1 °C 30 in /  1017.2 hPa NW 9 mph /  14.5 km/h 18 mph /  29.0 km/h 83 % 0 in /  0.0 mm
01:32 40.5 °F /  4.7 °C 36 °F /  2.2 °C 30 in /  1017.2 hPa NW 12 mph /  19.3 km/h 18 mph /  29.0 km/h 84 % 0 in /  0.0 mm
01:37 40.5 °F /  4.7 °C 36 °F /  2.2 °C 30 in /  1017.2 hPa WNW 17 mph /  27.4 km/h 18 mph /  29.0 km/h 84 % 0 in /  0.0 mm
01:42 40.5 °F /  4.7 °C 36 °F /  2.2 °C 30.1 in /  1017.5 hPa NNW 5 mph /  8.0 km/h 17 mph /  27.4 km/h 84 % 0 in /  0.0 mm
01:47 40.5 °F /  4.7 °C 36 °F /  2.2 °C 30.1 in /  1017.5 hPa NNW 7 mph /  11.3 km/h 17 mph /  27.4 km/h 84 % 0 in /  0.0 mm
01:52 40.3 °F /  4.6 °C 35.8 °F /  2.1 °C 30.1 in /  1017.5 hPa NW 9 mph /  14.5 km/h 18 mph /  29.0 km/h 84 % 0 in /  0.0 mm
01:57 40.3 °F /  4.6 °C 36.1 °F /  2.3 °C 30.1 in /  1017.5 hPa NW 9 mph /  14.5 km/h 18 mph /  29.0 km/h 85 % 0 in /  0.0 mm
02:02 40.1 °F /  4.5 °C 36 °F /  2.2 °C 30.1 in /  1017.5 hPa NW 6 mph /  9.7 km/h 18 mph /  29.0 km/h 85 % 0 in /  0.0 mm
02:07 39.9 °F /  4.4 °C 35.8 °F /  2.1 °C 30.1 in /  1017.5 hPa WNW 2 mph /  3.2 km/h 18 mph /  29.0 km/h 85 % 0 in /  0.0 mm
02:12 39.9 °F /  4.4 °C 36.1 °F /  2.3 °C 30.1 in /  1017.5 hPa WNW 6 mph /  9.7 km/h 18 mph /  29.0 km/h 86 % 0 in /  0.0 mm
02:17 39.7 °F /  4.3 °C 36 °F /  2.2 °C 30.1 in /  1017.5 hPa WNW 5 mph /  8.0 km/h 18 mph /  29.0 km/h 86 % 0 in /  0.0 mm
02:22 39.7 °F /  4.3 °C 36 °F /  2.2 °C 30.1 in /  1017.5 hPa NW 12 mph /  19.3 km/h 16 mph /  25.7 km/h 86 % 0 in /  0.0 mm
02:27 39.7 °F /  4.3 °C 36 °F /  2.2 °C 30.1 in /  1017.8 hPa NW 9 mph /  14.5 km/h 15 mph /  24.1 km/h 86 % 0 in /  0.0 mm
02:32 39.7 °F /  4.3 °C 36 °F /  2.2 °C 30.1 in /  1017.8 hPa WNW 15 mph /  24.1 km/h 17 mph /  27.4 km/h 86 % 0 in /  0.0 mm
02:37 39.7 °F /  4.3 °C 36 °F /  2.2 °C 30.1 in /  1017.8 hPa NNW 8 mph /  12.9 km/h 17 mph /  27.4 km/h 86 % 0 in /  0.0 mm
02:42 39.7 °F /  4.3 °C 36 °F /  2.2 °C 30.1 in /  1017.8 hPa WNW 3 mph /  4.8 km/h 17 mph /  27.4 km/h 86 % 0 in /  0.0 mm
02:47 39.6 °F /  4.2 °C 36 °F /  2.2 °C 30.1 in /  1017.8 hPa WNW 11 mph /  17.7 km/h 17 mph /  27.4 km/h 87 % 0 in /  0.0 mm
02:52 39.7 °F /  4.3 °C 36.1 °F /  2.3 °C 30.1 in /  1017.8 hPa NW 9 mph /  14.5 km/h 17 mph /  27.4 km/h 87 % 0 in /  0.0 mm
02:57 39.7 °F /  4.3 °C 36.1 °F /  2.3 °C 30.1 in /  1017.8 hPa NW 12 mph /  19.3 km/h 17 mph /  27.4 km/h 87 % 0 in /  0.0 mm
03:02 39.7 °F /  4.3 °C 36.1 °F /  2.3 °C 30.1 in /  1017.8 hPa NNW 12 mph /  19.3 km/h 17 mph /  27.4 km/h 87 % 0 in /  0.0 mm
03:12 39.9 °F /  4.4 °C 36.3 °F /  2.4 °C 30.1 in /  1017.8 hPa NNW 8 mph /  12.9 km/h 19 mph /  30.6 km/h 87 % 0 in /  0.0 mm
03:17 39.9 °F /  4.4 °C 36.3 °F /  2.4 °C 30.1 in /  1017.8 hPa NW 12 mph /  19.3 km/h 19 mph /  30.6 km/h 87 % 0 in /  0.0 mm
03:22 40.1 °F /  4.5 °C 36.5 °F /  2.5 °C 30.1 in /  1017.8 hPa NW 4 mph /  6.4 km/h 17 mph /  27.4 km/h 87 % 0 in /  0.0 mm
03:27 40.3 °F /  4.6 °C 36.7 °F /  2.6 °C 30.1 in /  1017.8 hPa North 8 mph /  12.9 km/h 17 mph /  27.4 km/h 87 % 0 in /  0.0 mm
03:32 40.3 °F /  4.6 °C 36.5 °F /  2.5 °C 30.1 in /  1017.8 hPa WNW 13 mph /  20.9 km/h 19 mph /  30.6 km/h 86 % 0 in /  0.0 mm
03:37 40.5 °F /  4.7 °C 36.7 °F /  2.6 °C 30.1 in /  1018.2 hPa NW 6 mph /  9.7 km/h 19 mph /  30.6 km/h 86 % 0 in /  0.0 mm
03:42 39.6 °F /  4.2 °C 35.8 °F /  2.1 °C 30.1 in /  1018.2 hPa NW 6 mph /  9.7 km/h 17 mph /  27.4 km/h 86 % 0 in /  0.0 mm
08:42 41.2 °F /  5.1 °C 37.9 °F /  3.3 °C 30.1 in /  1020.2 hPa NNW 13 mph /  20.9 km/h -998.7 mph /  -1607.4 km/h 88 % 0 in /  0 mm
08:47 41.4 °F /  5.2 °C 38.1 °F /  3.4 °C 30.1 in /  1020.5 hPa North 11 mph /  17.7 km/h 20 mph /  32.2 km/h 88 % 0 in /  0.0 mm
08:52 41.4 °F /  5.2 °C 38.1 °F /  3.4 °C 30.1 in /  1020.5 hPa NNW 13 mph /  20.9 km/h 20 mph /  32.2 km/h 88 % 0 in /  0.0 mm
08:57 41.4 °F /  5.2 °C 37.8 °F /  3.2 °C 30.1 in /  1020.5 hPa North 10 mph /  16.1 km/h 20 mph /  32.2 km/h 87 % 0 in /  0.0 mm
09:02 41.5 °F /  5.3 °C 37.9 °F /  3.3 °C 30.2 in /  1020.9 hPa NNW 12 mph /  19.3 km/h 20 mph /  32.2 km/h 87 % 0 in /  0.0 mm
09:12 41.5 °F /  5.3 °C 37.9 °F /  3.3 °C 30.2 in /  1020.9 hPa NNE 12 mph /  19.3 km/h 23 mph /  37.0 km/h 87 % 0 in /  0.0 mm
09:17 41.5 °F /  5.3 °C 37.9 °F /  3.3 °C 30.2 in /  1020.9 hPa NW 11 mph /  17.7 km/h 17 mph /  27.4 km/h 87 % 0 in /  0.0 mm
09:27 41.5 °F /  5.3 °C 37.9 °F /  3.3 °C 30.2 in /  1021.2 hPa NNW 7 mph /  11.3 km/h 17 mph /  27.4 km/h 87 % 0 in /  0.0 mm
09:32 41.5 °F /  5.3 °C 37.9 °F /  3.3 °C 30.2 in /  1021.2 hPa NNW 13 mph /  20.9 km/h 17 mph /  27.4 km/h 87 % 0 in /  0.0 mm
09:37 41.7 °F /  5.4 °C 38.1 °F /  3.4 °C 30.2 in /  1021.2 hPa NNE 11 mph /  17.7 km/h 18 mph /  29.0 km/h 87 % 0 in /  0.0 mm
09:42 41.7 °F /  5.4 °C 37.8 °F /  3.2 °C 30.2 in /  1021.2 hPa NNW 7 mph /  11.3 km/h 18 mph /  29.0 km/h 86 % 0 in /  0.0 mm
09:47 41.7 °F /  5.4 °C 38.1 °F /  3.4 °C 30.2 in /  1021.2 hPa NNW 12 mph /  19.3 km/h 18 mph /  29.0 km/h 87 % 0 in /  0.0 mm
09:52 41.7 °F /  5.4 °C 37.8 °F /  3.2 °C 30.2 in /  1021.2 hPa NNE 10 mph /  16.1 km/h 18 mph /  29.0 km/h 86 % 0 in /  0.0 mm
09:57 41.9 °F /  5.5 °C 37.9 °F /  3.3 °C 30.2 in /  1021.2 hPa NNW 13 mph /  20.9 km/h 22 mph /  35.4 km/h 86 % 0 in /  0.0 mm
10:02 41.9 °F /  5.5 °C 37.9 °F /  3.3 °C 30.2 in /  1021.2 hPa North 9 mph /  14.5 km/h 22 mph /  35.4 km/h 86 % 0 in /  0.0 mm
10:07 42.1 °F /  5.6 °C 38.1 °F /  3.4 °C 30.2 in /  1021.6 hPa North 15 mph /  24.1 km/h 22 mph /  35.4 km/h 86 % 0 in /  0.0 mm
10:12 42.3 °F /  5.7 °C 38.3 °F /  3.5 °C 30.2 in /  1021.2 hPa NW 9 mph /  14.5 km/h 22 mph /  35.4 km/h 86 % 0 in /  0.0 mm
10:17 42.3 °F /  5.7 °C 38.1 °F /  3.4 °C 30.2 in /  1021.6 hPa NNW 12 mph /  19.3 km/h 22 mph /  35.4 km/h 85 % 0 in /  0.0 mm
10:22 42.3 °F /  5.7 °C 38.1 °F /  3.4 °C 30.2 in /  1021.6 hPa NNE 11 mph /  17.7 km/h 22 mph /  35.4 km/h 85 % 0 in /  0.0 mm
10:32 42.3 °F /  5.7 °C 38.1 °F /  3.4 °C 30.2 in /  1021.6 hPa NW 19 mph /  30.6 km/h 22 mph /  35.4 km/h 85 % 0 in /  0.0 mm
10:42 42.4 °F /  5.8 °C 38.5 °F /  3.6 °C 30.2 in /  1021.6 hPa North 10 mph /  16.1 km/h 22 mph /  35.4 km/h 86 % 0 in /  0.0 mm
10:47 42.6 °F /  5.9 °C 38.5 °F /  3.6 °C 30.2 in /  1021.6 hPa NW 13 mph /  20.9 km/h 21 mph /  33.8 km/h 85 % 0 in /  0.0 mm
10:52 42.6 °F /  5.9 °C 38.1 °F /  3.4 °C 30.2 in /  1021.6 hPa NW 15 mph /  24.1 km/h 21 mph /  33.8 km/h 84 % 0 in /  0.0 mm
10:57 42.6 °F /  5.9 °C 38.5 °F /  3.6 °C 30.2 in /  1021.6 hPa NNW 8 mph /  12.9 km/h 21 mph /  33.8 km/h 85 % 0 in /  0.0 mm
11:02 42.8 °F /  6.0 °C 38.7 °F /  3.7 °C 30.2 in /  1021.9 hPa NNW 11 mph /  17.7 km/h 21 mph /  33.8 km/h 85 % 0 in /  0.0 mm
11:12 43 °F /  6.1 °C 38.8 °F /  3.8 °C 30.2 in /  1021.9 hPa NNE 8 mph /  12.9 km/h 20 mph /  32.2 km/h 85 % 0 in /  0.0 mm
11:17 43.2 °F /  6.2 °C 39 °F /  3.9 °C 30.2 in /  1022.2 hPa NW 9 mph /  14.5 km/h 17 mph /  27.4 km/h 85 % 0 in /  0.0 mm
11:27 43.5 °F /  6.4 °C 38.7 °F /  3.7 °C 30.2 in /  1021.9 hPa NNE 12 mph /  19.3 km/h 18 mph /  29.0 km/h 83 % 0 in /  0.0 mm
11:32 43.5 °F /  6.4 °C 38.7 °F /  3.7 °C 30.2 in /  1021.9 hPa NNW 12 mph /  19.3 km/h 18 mph /  29.0 km/h 83 % 0 in /  0.0 mm
11:37 43.9 °F /  6.6 °C 39 °F /  3.9 °C 30.2 in /  1021.9 hPa North 11 mph /  17.7 km/h 22 mph /  35.4 km/h 83 % 0 in /  0.0 mm
11:42 43.9 °F /  6.6 °C 39 °F /  3.9 °C 30.2 in /  1021.9 hPa North 16 mph /  25.7 km/h 22 mph /  35.4 km/h 83 % 0 in /  0.0 mm
11:47 44.1 °F /  6.7 °C 39.2 °F /  4.0 °C 30.2 in /  1021.9 hPa North 13 mph /  20.9 km/h 22 mph /  35.4 km/h 83 % 0 in /  0.0 mm
11:52 44.2 °F /  6.8 °C 39.4 °F /  4.1 °C 30.2 in /  1021.9 hPa NNW 18 mph /  29.0 km/h 22 mph /  35.4 km/h 83 % 0 in /  0.0 mm
11:57 44.4 °F /  6.9 °C 39.2 °F /  4.0 °C 30.2 in /  1021.6 hPa ENE 10 mph /  16.1 km/h 20 mph /  32.2 km/h 82 % 0 in /  0.0 mm
12:02 44.4 °F /  6.9 °C 39.2 °F /  4.0 °C 30.2 in /  1021.9 hPa NNW 10 mph /  16.1 km/h 20 mph /  32.2 km/h 82 % 0 in /  0.0 mm
12:12 44.4 °F /  6.9 °C 39.2 °F /  4.0 °C 30.2 in /  1021.9 hPa North 17 mph /  27.4 km/h 20 mph /  32.2 km/h 82 % 0 in /  0.0 mm
12:17 44.6 °F /  7.0 °C 39.7 °F /  4.3 °C 30.2 in /  1021.9 hPa NNW 8 mph /  12.9 km/h 21 mph /  33.8 km/h 83 % 0 in /  0.0 mm
12:27 44.8 °F /  7.1 °C 39.4 °F /  4.1 °C 30.2 in /  1021.9 hPa NNE 15 mph /  24.1 km/h 22 mph /  35.4 km/h 81 % 0 in /  0.0 mm
12:32 45 °F /  7.2 °C 39.7 °F /  4.3 °C 30.2 in /  1022.2 hPa NW 8 mph /  12.9 km/h 22 mph /  35.4 km/h 82 % 0 in /  0.0 mm
12:42 45 °F /  7.2 °C 39.2 °F /  4.0 °C 30.2 in /  1022.2 hPa North 10 mph /  16.1 km/h 24 mph /  38.6 km/h 80 % 0 in /  0.0 mm
12:52 45 °F /  7.2 °C 39.6 °F /  4.2 °C 30.2 in /  1022.2 hPa NNW 10 mph /  16.1 km/h 22 mph /  35.4 km/h 81 % 0 in /  0.0 mm
12:57 44.8 °F /  7.1 °C 39 °F /  3.9 °C 30.2 in /  1022.2 hPa NNW 13 mph /  20.9 km/h 22 mph /  35.4 km/h 80 % 0 in /  0.0 mm
13:07 44.8 °F /  7.1 °C 39 °F /  3.9 °C 30.2 in /  1022.2 hPa NNW 9 mph /  14.5 km/h 19 mph /  30.6 km/h 80 % 0 in /  0.0 mm
13:12 44.8 °F /  7.1 °C 39.4 °F /  4.1 °C 30.2 in /  1022.2 hPa NNW 8 mph /  12.9 km/h 19 mph /  30.6 km/h 81 % 0 in /  0.0 mm
13:17 44.8 °F /  7.1 °C 39.4 °F /  4.1 °C 30.2 in /  1022.2 hPa NNE 7 mph /  11.3 km/h 19 mph /  30.6 km/h 81 % 0 in /  0.0 mm
13:22 44.8 °F /  7.1 °C 39 °F /  3.9 °C 30.2 in /  1022.2 hPa NNW 12 mph /  19.3 km/h 19 mph /  30.6 km/h 80 % 0 in /  0.0 mm
13:32 45.1 °F /  7.3 °C 39.4 °F /  4.1 °C 30.2 in /  1022.2 hPa NNW 8 mph /  12.9 km/h 18 mph /  29.0 km/h 80 % 0 in /  0.0 mm
13:37 45.3 °F /  7.4 °C 39.6 °F /  4.2 °C 30.2 in /  1022.2 hPa NNE 9 mph /  14.5 km/h 18 mph /  29.0 km/h 80 % 0 in /  0.0 mm
13:42 45.5 °F /  7.5 °C 39.4 °F /  4.1 °C 30.2 in /  1022.2 hPa NW 5 mph /  8.0 km/h 18 mph /  29.0 km/h 79 % 0 in /  0.0 mm
13:47 45.3 °F /  7.4 °C 39.2 °F /  4.0 °C 30.2 in /  1022.2 hPa North 11 mph /  17.7 km/h 17 mph /  27.4 km/h 79 % 0 in /  0.0 mm
13:52 45.3 °F /  7.4 °C 39.2 °F /  4.0 °C 30.2 in /  1022.2 hPa North 10 mph /  16.1 km/h 17 mph /  27.4 km/h 79 % 0 in /  0.0 mm
13:57 45.5 °F /  7.5 °C 39.4 °F /  4.1 °C 30.2 in /  1022.2 hPa NW 6 mph /  9.7 km/h 17 mph /  27.4 km/h 79 % 0 in /  0.0 mm
14:02 45.9 °F /  7.7 °C 39.4 °F /  4.1 °C 30.2 in /  1022.2 hPa NNW 8 mph /  12.9 km/h 16 mph /  25.7 km/h 78 % 0 in /  0.0 mm
14:12 45.9 °F /  7.7 °C 39.4 °F /  4.1 °C 30.2 in /  1022.2 hPa North 7 mph /  11.3 km/h 18 mph /  29.0 km/h 78 % 0 in /  0.0 mm
14:17 46 °F /  7.8 °C 39.6 °F /  4.2 °C 30.2 in /  1022.6 hPa North 12 mph /  19.3 km/h 18 mph /  29.0 km/h 78 % 0 in /  0.0 mm
14:22 46 °F /  7.8 °C 39.6 °F /  4.2 °C 30.2 in /  1022.2 hPa North 10 mph /  16.1 km/h 18 mph /  29.0 km/h 78 % 0 in /  0.0 mm
14:27 45.9 °F /  7.7 °C 39.4 °F /  4.1 °C 30.2 in /  1022.2 hPa NE 7 mph /  11.3 km/h 17 mph /  27.4 km/h 78 % 0 in /  0.0 mm
14:32 45.9 °F /  7.7 °C 39.4 °F /  4.1 °C 30.2 in /  1022.2 hPa NNW 15 mph /  24.1 km/h 17 mph /  27.4 km/h 78 % 0 in /  0.0 mm
14:37 46 °F /  7.8 °C 39.6 °F /  4.2 °C 30.2 in /  1022.6 hPa NNW 10 mph /  16.1 km/h 17 mph /  27.4 km/h 78 % 0 in /  0.0 mm
14:42 45.9 °F /  7.7 °C 39.4 °F /  4.1 °C 30.2 in /  1022.6 hPa North 10 mph /  16.1 km/h 16 mph /  25.7 km/h 78 % 0 in /  0.0 mm
14:52 45.5 °F /  7.5 °C 39.4 °F /  4.1 °C 30.2 in /  1022.6 hPa NNW 7 mph /  11.3 km/h 16 mph /  25.7 km/h 79 % 0 in /  0.0 mm
14:57 45.3 °F /  7.4 °C 39.6 °F /  4.2 °C 30.2 in /  1022.9 hPa NW 11 mph /  17.7 km/h 17 mph /  27.4 km/h 80 % 0 in /  0.0 mm
15:02 45 °F /  7.2 °C 39.6 °F /  4.2 °C 30.2 in /  1022.6 hPa WNW 11 mph /  17.7 km/h 17 mph /  27.4 km/h 81 % 0 in /  0.0 mm
15:07 45 °F /  7.2 °C 39.2 °F /  4.0 °C 30.2 in /  1022.6 hPa NNW 4 mph /  6.4 km/h 17 mph /  27.4 km/h 80 % 0 in /  0.0 mm
15:12 45 °F /  7.2 °C 39.2 °F /  4.0 °C 30.2 in /  1022.6 hPa NW 7 mph /  11.3 km/h 17 mph /  27.4 km/h 80 % 0 in /  0.0 mm
15:17 44.4 °F /  6.9 °C 39 °F /  3.9 °C 30.2 in /  1022.9 hPa NNW 6 mph /  9.7 km/h 17 mph /  27.4 km/h 81 % 0 in /  0.0 mm
15:22 44.2 °F /  6.8 °C 39 °F /  3.9 °C 30.2 in /  1022.9 hPa WNW 6 mph /  9.7 km/h 15 mph /  24.1 km/h 82 % 0 in /  0.0 mm
15:32 43.5 °F /  6.4 °C 38.7 °F /  3.7 °C 30.2 in /  1022.9 hPa NW 4 mph /  6.4 km/h 11 mph /  17.7 km/h 83 % 0 in /  0.0 mm
15:37 43.3 °F /  6.3 °C 38.5 °F /  3.6 °C 30.2 in /  1023.2 hPa NW 2 mph /  3.2 km/h 12 mph /  19.3 km/h 83 % 0 in /  0.0 mm
15:42 43.3 °F /  6.3 °C 38.5 °F /  3.6 °C 30.2 in /  1023.2 hPa North 4 mph /  6.4 km/h 12 mph /  19.3 km/h 83 % 0 in /  0.0 mm
15:52 43.9 °F /  6.6 °C 39 °F /  3.9 °C 30.2 in /  1023.2 hPa ENE 4 mph /  6.4 km/h 9 mph /  14.5 km/h 83 % 0 in /  0.0 mm
15:57 44.1 °F /  6.7 °C 39.2 °F /  4.0 °C 30.2 in /  1023.2 hPa NNW 4 mph /  6.4 km/h 9 mph /  14.5 km/h 83 % 0 in /  0.0 mm
16:02 44.4 °F /  6.9 °C 39.6 °F /  4.2 °C 30.2 in /  1023.2 hPa NNW 3 mph /  4.8 km/h 9 mph /  14.5 km/h 83 % 0 in /  0.0 mm
16:12 44.4 °F /  6.9 °C 39.2 °F /  4.0 °C 30.2 in /  1023.2 hPa NNE 6 mph /  9.7 km/h 11 mph /  17.7 km/h 82 % 0 in /  0.0 mm
16:17 44.6 °F /  7.0 °C 39.4 °F /  4.1 °C 30.2 in /  1023.2 hPa North 6 mph /  9.7 km/h 10 mph /  16.1 km/h 82 % 0 in /  0.0 mm
16:22 44.6 °F /  7.0 °C 39.4 °F /  4.1 °C 30.2 in /  1023.2 hPa NNE 10 mph /  16.1 km/h 12 mph /  19.3 km/h 82 % 0 in /  0.0 mm
16:27 44.6 °F /  7.0 °C 39.4 °F /  4.1 °C 30.2 in /  1023.2 hPa North 5 mph /  8.0 km/h 12 mph /  19.3 km/h 82 % 0 in /  0.0 mm
16:32 44.4 °F /  6.9 °C 39.2 °F /  4.0 °C 30.2 in /  1023.2 hPa NW 7 mph /  11.3 km/h 12 mph /  19.3 km/h 82 % 0 in /  0.0 mm
16:42 44.2 °F /  6.8 °C 39 °F /  3.9 °C 30.2 in /  1023.2 hPa NNW 6 mph /  9.7 km/h 12 mph /  19.3 km/h 82 % 0 in /  0.0 mm
16:47 44.2 °F /  6.8 °C 38.5 °F /  3.6 °C 30.2 in /  1023.2 hPa NNW 7 mph /  11.3 km/h 12 mph /  19.3 km/h 80 % 0 in /  0.0 mm
16:52 44.2 °F /  6.8 °C 38.5 °F /  3.6 °C 30.2 in /  1023.6 hPa North 2 mph /  3.2 km/h 14 mph /  22.5 km/h 80 % 0 in /  0.0 mm
16:57 44.1 °F /  6.7 °C 38.3 °F /  3.5 °C 30.2 in /  1023.6 hPa NW 3 mph /  4.8 km/h 14 mph /  22.5 km/h 80 % 0 in /  0.0 mm
17:02 43.9 °F /  6.6 °C 38.5 °F /  3.6 °C 30.2 in /  1023.6 hPa NNW 10 mph /  16.1 km/h 10 mph /  16.1 km/h 81 % 0 in /  0.0 mm
17:12 43.3 °F /  6.3 °C 38.3 °F /  3.5 °C 30.2 in /  1023.6 hPa WNW 4 mph /  6.4 km/h 14 mph /  22.5 km/h 82 % 0 in /  0.0 mm
17:17 43.2 °F /  6.2 °C 38.3 °F /  3.5 °C 30.2 in /  1023.6 hPa NW 3 mph /  4.8 km/h 14 mph /  22.5 km/h 83 % 0 in /  0.0 mm
17:22 43 °F /  6.1 °C 38.1 °F /  3.4 °C 30.2 in /  1023.2 hPa WNW 1 mph /  1.6 km/h 14 mph /  22.5 km/h 83 % 0 in /  0.0 mm
17:27 43 °F /  6.1 °C 38.1 °F /  3.4 °C 30.2 in /  1023.6 hPa West 8 mph /  12.9 km/h 10 mph /  16.1 km/h 83 % 0 in /  0.0 mm
17:32 42.6 °F /  5.9 °C 37.8 °F /  3.2 °C 30.2 in /  1023.6 hPa NNW 3 mph /  4.8 km/h 10 mph /  16.1 km/h 83 % 0 in /  0.0 mm
17:42 42.3 °F /  5.7 °C 37.8 °F /  3.2 °C 30.2 in /  1023.9 hPa NNW 2 mph /  3.2 km/h 9 mph /  14.5 km/h 84 % 0 in /  0.0 mm
17:47 42.1 °F /  5.6 °C 37.9 °F /  3.3 °C 30.2 in /  1023.9 hPa NNW 5 mph /  8.0 km/h 8 mph /  12.9 km/h 85 % 0 in /  0.0 mm
17:52 42.1 °F /  5.6 °C 37.9 °F /  3.3 °C 30.2 in /  1023.9 hPa NNW 3 mph /  4.8 km/h 10 mph /  16.1 km/h 85 % 0 in /  0.0 mm
17:57 41.9 °F /  5.5 °C 37.8 °F /  3.2 °C 30.3 in /  1024.3 hPa WNW 1 mph /  1.6 km/h 10 mph /  16.1 km/h 85 % 0 in /  0.0 mm
18:02 41.7 °F /  5.4 °C 37.6 °F /  3.1 °C 30.3 in /  1024.3 hPa NNW 3 mph /  4.8 km/h 10 mph /  16.1 km/h 85 % 0 in /  0.0 mm
18:12 41.7 °F /  5.4 °C 37.6 °F /  3.1 °C 30.3 in /  1024.3 hPa NNW 1 mph /  1.6 km/h 10 mph /  16.1 km/h 85 % 0 in /  0.0 mm
18:17 42.1 °F /  5.6 °C 37.6 °F /  3.1 °C 30.3 in /  1024.3 hPa NNW 5 mph /  8.0 km/h 9 mph /  14.5 km/h 84 % 0 in /  0.0 mm
18:22 42.3 °F /  5.7 °C 37.8 °F /  3.2 °C 30.3 in /  1024.3 hPa NNW 6 mph /  9.7 km/h 9 mph /  14.5 km/h 84 % 0 in /  0.0 mm
18:32 42.3 °F /  5.7 °C 37.4 °F /  3.0 °C 30.3 in /  1024.3 hPa NNW 7 mph /  11.3 km/h 10 mph /  16.1 km/h 83 % 0 in /  0.0 mm
18:42 41.9 °F /  5.5 °C 37.4 °F /  3.0 °C 30.3 in /  1024.6 hPa NNW 2 mph /  3.2 km/h 9 mph /  14.5 km/h 84 % 0 in /  0.0 mm
18:47 41.7 °F /  5.4 °C 37.2 °F /  2.9 °C 30.3 in /  1024.6 hPa NNE 3 mph /  4.8 km/h 8 mph /  12.9 km/h 84 % 0 in /  0.0 mm
18:52 41.5 °F /  5.3 °C 37.4 °F /  3.0 °C 30.3 in /  1024.6 hPa NNW 2 mph /  3.2 km/h 8 mph /  12.9 km/h 85 % 0 in /  0.0 mm
18:57 41.4 °F /  5.2 °C 37.2 °F /  2.9 °C 30.3 in /  1024.6 hPa NNW 1 mph /  1.6 km/h 7 mph /  11.3 km/h 85 % 0 in /  0.0 mm
19:02 41.2 °F /  5.1 °C 37.4 °F /  3.0 °C 30.3 in /  1024.6 hPa NNE 2 mph /  3.2 km/h 6 mph /  9.7 km/h 86 % 0 in /  0.0 mm
19:12 40.8 °F /  4.9 °C 37.2 °F /  2.9 °C 30.3 in /  1024.9 hPa Calm   5 mph /  8.0 km/h 87 % 0 in /  0.0 mm
19:17 41 °F /  5.0 °C 37.4 °F /  3.0 °C 30.3 in /  1024.9 hPa North 2 mph /  3.2 km/h 5 mph /  8.0 km/h 87 % 0 in /  0.0 mm
19:22 41.2 °F /  5.1 °C 37.6 °F /  3.1 °C 30.3 in /  1024.9 hPa NNW 3 mph /  4.8 km/h 6 mph /  9.7 km/h 87 % 0 in /  0.0 mm
19:27 40.8 °F /  4.9 °C 37.2 °F /  2.9 °C 30.3 in /  1024.9 hPa WNW 3 mph /  4.8 km/h 6 mph /  9.7 km/h 87 % 0 in /  0.0 mm
19:32 40.8 °F /  4.9 °C 37.6 °F /  3.1 °C 30.3 in /  1024.9 hPa NW 3 mph /  4.8 km/h 6 mph /  9.7 km/h 88 % 0 in /  0.0 mm
19:37 41.2 °F /  5.1 °C 37.9 °F /  3.3 °C 30.3 in /  1024.9 hPa North 3 mph /  4.8 km/h 8 mph /  12.9 km/h 88 % 0 in /  0.0 mm
19:42 41.2 °F /  5.1 °C 37.6 °F /  3.1 °C 30.3 in /  1024.9 hPa NNW 4 mph /  6.4 km/h 8 mph /  12.9 km/h 87 % 0 in /  0.0 mm
19:47 41.2 °F /  5.1 °C 37.6 °F /  3.1 °C 30.3 in /  1024.9 hPa NNE 4 mph /  6.4 km/h 8 mph /  12.9 km/h 87 % 0 in /  0.0 mm
19:52 41.2 °F /  5.1 °C 37.6 °F /  3.1 °C 30.3 in /  1024.9 hPa NNW 4 mph /  6.4 km/h 8 mph /  12.9 km/h 87 % 0 in /  0.0 mm
19:57 41.2 °F /  5.1 °C 37.6 °F /  3.1 °C 30.3 in /  1024.9 hPa NNW 5 mph /  8.0 km/h 11 mph /  17.7 km/h 87 % 0 in /  0.0 mm
20:02 41.4 °F /  5.2 °C 37.6 °F /  3.1 °C 30.3 in /  1024.9 hPa North 9 mph /  14.5 km/h 11 mph /  17.7 km/h 86 % 0 in /  0.0 mm
20:12 41.5 °F /  5.3 °C 37.6 °F /  3.1 °C 30.3 in /  1024.9 hPa North 5 mph /  8.0 km/h 12 mph /  19.3 km/h 86 % 0 in /  0.0 mm
20:17 41.7 °F /  5.4 °C 37.8 °F /  3.2 °C 30.3 in /  1024.9 hPa North 8 mph /  12.9 km/h 12 mph /  19.3 km/h 86 % 0 in /  0.0 mm
20:22 41.7 °F /  5.4 °C 37.8 °F /  3.2 °C 30.3 in /  1024.9 hPa North 4 mph /  6.4 km/h 12 mph /  19.3 km/h 86 % 0 in /  0.0 mm
20:27 41.7 °F /  5.4 °C 37.8 °F /  3.2 °C 30.3 in /  1025.3 hPa NNE 4 mph /  6.4 km/h 12 mph /  19.3 km/h 86 % 0 in /  0.0 mm
20:32 41.9 °F /  5.5 °C 37.9 °F /  3.3 °C 30.3 in /  1025.3 hPa North 6 mph /  9.7 km/h 11 mph /  17.7 km/h 86 % 0 in /  0.0 mm
20:42 42.1 °F /  5.6 °C 38.1 °F /  3.4 °C 30.3 in /  1025.3 hPa Calm   9 mph /  14.5 km/h 86 % 0 in /  0.0 mm
20:47 42.1 °F /  5.6 °C 38.1 °F /  3.4 °C 30.3 in /  1025.3 hPa North 6 mph /  9.7 km/h 8 mph /  12.9 km/h 86 % 0 in /  0.0 mm
20:52 41.9 °F /  5.5 °C 37.9 °F /  3.3 °C 30.3 in /  1025.3 hPa NW 4 mph /  6.4 km/h 8 mph /  12.9 km/h 86 % 0 in /  0.0 mm
20:57 41.5 °F /  5.3 °C 37.9 °F /  3.3 °C 30.3 in /  1025.3 hPa NNW 2 mph /  3.2 km/h 8 mph /  12.9 km/h 87 % 0 in /  0.0 mm
21:02 41.4 °F /  5.2 °C 37.8 °F /  3.2 °C 30.3 in /  1025.3 hPa North 5 mph /  8.0 km/h 8 mph /  12.9 km/h 87 % 0 in /  0.0 mm
21:07 41.2 °F /  5.1 °C 37.9 °F /  3.3 °C 30.3 in /  1025.3 hPa NNW 5 mph /  8.0 km/h 7 mph /  11.3 km/h 88 % 0 in /  0.0 mm
21:12 40.8 °F /  4.9 °C 37.6 °F /  3.1 °C 30.3 in /  1025.3 hPa NNW 5 mph /  8.0 km/h 8 mph /  12.9 km/h 88 % 0 in /  0.0 mm
21:22 40.6 °F /  4.8 °C 37.6 °F /  3.1 °C 30.3 in /  1025.3 hPa North 3 mph /  4.8 km/h 8 mph /  12.9 km/h 89 % 0 in /  0.0 mm
21:27 40.5 °F /  4.7 °C 37.4 °F /  3.0 °C 30.3 in /  1025.3 hPa NW 3 mph /  4.8 km/h 9 mph /  14.5 km/h 89 % 0 in /  0.0 mm
21:37 40.3 °F /  4.6 °C 37.2 °F /  2.9 °C 30.3 in /  1025.3 hPa WNW 3 mph /  4.8 km/h 9 mph /  14.5 km/h 89 % 0 in /  0.0 mm
21:42 40.1 °F /  4.5 °C 37.4 °F /  3.0 °C 30.3 in /  1025.3 hPa NNW 3 mph /  4.8 km/h 8 mph /  12.9 km/h 90 % 0 in /  0.0 mm
21:52 40.3 °F /  4.6 °C 37.9 °F /  3.3 °C 30.3 in /  1025.3 hPa North 9 mph /  14.5 km/h 9 mph /  14.5 km/h 91 % 0 in /  0.0 mm
21:57 40.5 °F /  4.7 °C 37.8 °F /  3.2 °C 30.3 in /  1025.3 hPa North 2 mph /  3.2 km/h 11 mph /  17.7 km/h 90 % 0 in /  0.0 mm
22:02 40.5 °F /  4.7 °C 37.8 °F /  3.2 °C 30.3 in /  1025.3 hPa NNW 5 mph /  8.0 km/h 11 mph /  17.7 km/h 90 % 0 in /  0.0 mm
22:12 40.5 °F /  4.7 °C 37.8 °F /  3.2 °C 30.3 in /  1025.6 hPa WNW 6 mph /  9.7 km/h 8 mph /  12.9 km/h 90 % 0 in /  0.0 mm
22:22 40.6 °F /  4.8 °C 37.9 °F /  3.3 °C 30.3 in /  1025.3 hPa NW 5 mph /  8.0 km/h 11 mph /  17.7 km/h 90 % 0 in /  0.0 mm
22:32 40.8 °F /  4.9 °C 37.8 °F /  3.2 °C 30.3 in /  1025.3 hPa NW 6 mph /  9.7 km/h 13 mph /  20.9 km/h 89 % 0 in /  0.0 mm
22:37 40.8 °F /  4.9 °C 37.8 °F /  3.2 °C 30.3 in /  1025.6 hPa WNW 3 mph /  4.8 km/h 13 mph /  20.9 km/h 89 % 0 in /  0.0 mm
22:42 40.8 °F /  4.9 °C 37.8 °F /  3.2 °C 30.3 in /  1025.6 hPa North 5 mph /  8.0 km/h 13 mph /  20.9 km/h 89 % 0 in /  0.0 mm
22:47 40.8 °F /  4.9 °C 37.8 °F /  3.2 °C 30.3 in /  1025.6 hPa NNW 5 mph /  8.0 km/h 13 mph /  20.9 km/h 89 % 0 in /  0.0 mm
22:52 40.6 °F /  4.8 °C 37.6 °F /  3.1 °C 30.3 in /  1025.6 hPa North 9 mph /  14.5 km/h 14 mph /  22.5 km/h 89 % 0 in /  0.0 mm
22:57 40.8 °F /  4.9 °C 37.8 °F /  3.2 °C 30.3 in /  1025.6 hPa NNW 4 mph /  6.4 km/h 14 mph /  22.5 km/h 89 % 0 in /  0.0 mm
23:02 40.8 °F /  4.9 °C 37.8 °F /  3.2 °C 30.3 in /  1025.6 hPa NNW 4 mph /  6.4 km/h 13 mph /  20.9 km/h 89 % 0 in /  0.0 mm
23:07 40.8 °F /  4.9 °C 37.6 °F /  3.1 °C 30.3 in /  1025.6 hPa NW 3 mph /  4.8 km/h 12 mph /  19.3 km/h 88 % 0 in /  0.0 mm
23:12 40.8 °F /  4.9 °C 37.6 °F /  3.1 °C 30.3 in /  1025.6 hPa NNW 5 mph /  8.0 km/h 11 mph /  17.7 km/h 88 % 0 in /  0.0 mm
23:17 40.6 °F /  4.8 °C 37.4 °F /  3.0 °C 30.3 in /  1025.6 hPa North 3 mph /  4.8 km/h 11 mph /  17.7 km/h 88 % 0 in /  0.0 mm
23:27 39.9 °F /  4.4 °C 36.9 °F /  2.7 °C 30.3 in /  1025.6 hPa NNE 5 mph /  8.0 km/h 8 mph /  12.9 km/h 89 % 0 in /  0.0 mm
23:32 39.7 °F /  4.3 °C 36.7 °F /  2.6 °C 30.3 in /  1025.6 hPa NNE 4 mph /  6.4 km/h 7 mph /  11.3 km/h 89 % 0 in /  0.0 mm
23:42 39.7 °F /  4.3 °C 36.7 °F /  2.6 °C 30.3 in /  1025.6 hPa WNW 4 mph /  6.4 km/h 10 mph /  16.1 km/h 89 % 0 in /  0.0 mm
23:47 39.7 °F /  4.3 °C 37 °F /  2.8 °C 30.3 in /  1025.6 hPa North 9 mph /  14.5 km/h 11 mph /  17.7 km/h 90 % 0 in /  0.0 mm
23:57 39.7 °F /  4.3 °C 37 °F /  2.8 °C 30.3 in /  1025.3 hPa North 10 mph /  16.1 km/h 13 mph /  20.9 km/h 90 % 0 in /  0.0 mm
Meteo18
Compliments of Weather Underground - 4 mb

Script developed by  Jim McMurry - jmcmurry@mwt.net Adapted for the template by  Wim van der Kuil - Leuven-Template.eu

You find our weather info also at:

European Weather Network

Weather Underground

Equipment we use:

Weather-station
Davis Vue

Weather-program
Meteohub

Weather-server
Raspberry PI 2 B+

Provider
1 and 1

Davis Vue

Meteohub

Raspberry PI 2 B+

1 and 1